Terminal Aerodrome Forecast
Issued by NWS

Home | Current Version | Previous Version | Text Only | Print | Product List | Glossary On
Versions: 1 2 3 4 5 6 7 8 9 10 11 12 13 14 15 16 17
000
FTAK31 PAJN 221700
TAFAYA
TAF
PAYA 221730Z 2218/2318 VRB04KT P6SM BCFG BKN003
     FM222000 27006KT P6SM SCT005
     FM230000 29010KT P6SM SCT015
     FM230500 VRB04KT P6SM SCT005
     FM231000 VRB03KT P6SM BKN003
     FM231700 VRB04KT P6SM SCT010
      AMD LTD TO CLD VIS AND WIND 2301/2310=

USA.gov is the U.S. government's official web portal to all federal, state and local government web resources and services.